Time;durP1;ratioP1;P1;durP2;ratioP2;P2;SDS_P1;SDS_P2;PMS_P1;PMS_P2;Temp;Humidity;BMP_temperature;BMP_pressure;BME280_temperature;BME280_humidity;BME280_pressure;Samples;Min_cycle;Max_cycle;Signal;HPM_P1;HPM_P2
2021/10/20 00:00:06;;;;;;;;;;;;;;;;;;5019731;28;20041;-65
2021/10/20 00:02:35;;;;;;;21.55;9.50;;;;;;;;;;5034659;28;19932;-64
2021/10/20 00:05:01;;;;;;;20.10;10.48;;;;;;;;;;5028828;28;20053;-66
2021/10/20 00:07:28;;;;;;;19.65;9.60;;;;;;;;;;5038303;28;20497;-65
2021/10/20 00:09:54;;;;;;;20.25;10.55;;;;;;;;;;5030674;28;20053;-65
2021/10/20 00:12:21;;;;;;;25.20;10.68;;;;;;;;;;5033892;28;20049;-65
2021/10/20 00:14:47;;;;;;;21.52;9.32;;;;;;;;;;5026556;28;20045;-65
2021/10/20 00:17:14;;;;;;;23.02;9.70;;;;;;;;;;5032754;28;20049;-65
2021/10/20 00:19:40;;;;;;;17.80;9.88;;;;;;;;;;5037579;28;20061;-65
2021/10/20 00:22:07;;;;;;;19.02;9.40;;;;;;;;;;5030620;28;20052;-65
2021/10/20 00:24:33;;;;;;;19.13;9.98;;;;;;;;;;5036177;28;20522;-65
2021/10/20 00:26:59;;;;;;;23.42;9.52;;;;;;;;;;5027245;28;20049;-66
2021/10/20 00:29:25;;;;;;;18.85;9.60;;;;;;;;;;5028151;28;20366;-65
2021/10/20 00:31:52;;;;;;;17.85;8.07;;;;;;;;;;5037403;28;20361;-66
2021/10/20 00:34:18;;;;;;;16.58;9.32;;;;;;;;;;5025799;28;20053;-65
2021/10/20 00:36:44;;;;;;;18.63;8.70;;;;;;;;;;5034200;28;20405;-65
2021/10/20 00:39:10;;;;;;;15.98;8.57;;;;;;;;;;5027138;28;20341;-66
2021/10/20 00:41:37;;;;;;;24.15;9.27;;;;;;;;;;5034857;28;20079;-65
2021/10/20 00:44:03;;;;;;;21.73;9.57;;;;;;;;;;5023794;28;20470;-65
2021/10/20 00:46:30;;;;;;;16.75;8.55;;;;;;;;;;5034301;28;20041;-65
2021/10/20 00:48:57;;;;;;;15.93;7.50;;;;;;;;;;5035835;28;20073;-66
2021/10/20 00:51:26;;;;;;;16.17;7.93;;;;;;;;;;5025184;28;20056;-65
2021/10/20 00:53:54;;;;;;;15.00;8.00;;;;;;;;;;5031687;28;20053;-65
2021/10/20 00:56:20;;;;;;;14.13;8.13;;;;;;;;;;5028285;28;20056;-65
2021/10/20 00:58:47;;;;;;;16.98;7.95;;;;;;;;;;5039270;28;20406;-65
2021/10/20 01:01:13;;;;;;;19.73;7.90;;;;;;;;;;5035390;28;20402;-65
2021/10/20 01:03:40;;;;;;;13.25;7.63;;;;;;;;;;5033777;28;20047;-65
2021/10/20 01:06:06;;;;;;;17.23;7.32;;;;;;;;;;5035742;28;20042;-65
2021/10/20 01:08:32;;;;;;;14.15;7.18;;;;;;;;;;5027104;28;20049;-66
2021/10/20 01:10:59;;;;;;;15.48;7.88;;;;;;;;;;5032541;28;20088;-65
2021/10/20 01:13:25;;;;;;;19.17;6.95;;;;;;;;;;5031703;28;20040;-65
2021/10/20 01:15:52;;;;;;;13.93;7.05;;;;;;;;;;5035068;28;20045;-66
2021/10/20 01:18:19;;;;;;;14.50;7.00;;;;;;;;;;5029442;28;20499;-65
2021/10/20 01:20:46;;;;;;;14.23;7.22;;;;;;;;;;5024948;28;20453;-65
2021/10/20 01:23:12;;;;;;;14.07;7.05;;;;;;;;;;5025932;28;20041;-65
2021/10/20 01:25:38;;;;;;;14.40;7.13;;;;;;;;;;5027302;28;20729;-65
2021/10/20 01:28:05;;;;;;;10.77;6.60;;;;;;;;;;5032308;28;20140;-65
2021/10/20 01:30:31;;;;;;;16.02;6.90;;;;;;;;;;5029740;28;20045;-65
2021/10/20 01:32:58;;;;;;;13.25;6.80;;;;;;;;;;5037076;28;20056;-66
2021/10/20 01:35:24;;;;;;;13.90;7.38;;;;;;;;;;5030330;28;20068;-65
2021/10/20 01:37:50;;;;;;;13.75;6.90;;;;;;;;;;5040291;28;20059;-65
2021/10/20 01:40:16;;;;;;;12.52;6.63;;;;;;;;;;5033601;28;20037;-65
2021/10/20 01:42:43;;;;;;;14.55;6.60;;;;;;;;;;5036136;28;20051;-65
2021/10/20 01:45:13;;;;;;;12.50;6.65;;;;;;;;;;5033002;28;20447;-65
2021/10/20 01:47:40;;;;;;;16.88;6.90;;;;;;;;;;5024543;28;20052;-65
2021/10/20 01:50:07;;;;;;;15.98;7.40;;;;;;;;;;5033589;28;20134;-65
2021/10/20 01:52:34;;;;;;;12.90;7.23;;;;;;;;;;5036025;28;20409;-66
2021/10/20 01:55:00;;;;;;;16.63;6.88;;;;;;;;;;5039114;28;20562;-65
2021/10/20 01:57:26;;;;;;;15.82;7.72;;;;;;;;;;5043023;28;20041;-65
2021/10/20 01:59:52;;;;;;;13.32;6.97;;;;;;;;;;5018946;28;20049;-65
2021/10/20 02:02:19;;;;;;;16.67;6.60;;;;;;;;;;5038685;28;20045;-65
2021/10/20 02:04:47;;;;;;;18.20;6.82;;;;;;;;;;5032297;28;20122;-65
2021/10/20 02:07:13;;;;;;;13.32;6.82;;;;;;;;;;5044363;28;20048;-65
2021/10/20 02:09:40;;;;;;;12.18;6.38;;;;;;;;;;5005475;28;20049;-66
2021/10/20 02:12:06;;;;;;;13.63;6.90;;;;;;;;;;5040347;28;20063;-65
2021/10/20 02:14:32;;;;;;;11.32;6.63;;;;;;;;;;5030367;28;20055;-66
2021/10/20 02:16:59;;;;;;;12.30;6.70;;;;;;;;;;5032330;28;20057;-65
2021/10/20 02:19:27;;;;;;;15.85;7.18;;;;;;;;;;5035416;28;21248;-65
2021/10/20 02:21:55;;;;;;;15.65;6.50;;;;;;;;;;5038318;28;20049;-65
2021/10/20 02:24:21;;;;;;;17.63;7.37;;;;;;;;;;5035261;28;20048;-65
2021/10/20 02:26:48;;;;;;;13.88;6.75;;;;;;;;;;5036687;28;20779;-65
2021/10/20 02:29:14;;;;;;;16.30;6.70;;;;;;;;;;5025899;28;20052;-65
2021/10/20 02:31:46;;;;;;;12.68;6.72;;;;;;;;;;5045368;28;20076;-65
2021/10/20 02:34:13;;;;;;;9.52;6.35;;;;;;;;;;5037648;28;20399;-65
2021/10/20 02:36:40;;;;;;;16.50;6.72;;;;;;;;;;5042685;28;20045;-65
2021/10/20 02:39:06;;;;;;;11.40;6.38;;;;;;;;;;5020094;28;20525;-64
2021/10/20 02:41:32;;;;;;;11.25;6.20;;;;;;;;;;5040054;28;20048;-65
2021/10/20 02:43:59;;;;;;;13.52;6.70;;;;;;;;;;5017977;28;20486;-64
2021/10/20 02:46:25;;;;;;;11.73;6.45;;;;;;;;;;5041639;28;20049;-64
2021/10/20 02:48:52;;;;;;;14.40;6.40;;;;;;;;;;5034818;28;20518;-64
2021/10/20 02:51:18;;;;;;;11.00;7.20;;;;;;;;;;5035307;28;20068;-64
2021/10/20 02:53:44;;;;;;;12.02;6.30;;;;;;;;;;5039674;28;20049;-64
2021/10/20 02:56:13;;;;;;;16.33;6.47;;;;;;;;;;5035544;28;20053;-64
2021/10/20 02:58:41;;;;;;;14.52;6.50;;;;;;;;;;5033933;28;20059;-64
2021/10/20 03:01:08;;;;;;;11.43;6.70;;;;;;;;;;5034208;28;20599;-64
2021/10/20 03:03:38;;;;;;;15.65;6.93;;;;;;;;;;5008749;28;20052;-66
2021/10/20 03:06:04;;;;;;;13.25;6.65;;;;;;;;;;5041854;28;20044;-64
2021/10/20 03:08:31;;;;;;;12.45;6.45;;;;;;;;;;5019127;28;20046;-64
2021/10/20 03:10:57;;;;;;;11.50;6.40;;;;;;;;;;5037835;28;20059;-64
2021/10/20 03:13:23;;;;;;;10.95;6.80;;;;;;;;;;5019442;28;20059;-64
2021/10/20 03:15:50;;;;;;;11.75;6.80;;;;;;;;;;5040840;28;20102;-64
2021/10/20 03:18:16;;;;;;;14.23;6.55;;;;;;;;;;5026706;28;20045;-63
2021/10/20 03:20:42;;;;;;;12.98;6.57;;;;;;;;;;5037850;28;20052;-64
2021/10/20 03:23:09;;;;;;;10.60;6.28;;;;;;;;;;5034007;28;20095;-64
2021/10/20 03:25:35;;;;;;;11.95;6.63;;;;;;;;;;5025426;28;20049;-64
2021/10/20 03:28:01;;;;;;;10.55;6.50;;;;;;;;;;5035711;28;20061;-64
2021/10/20 03:30:28;;;;;;;16.73;6.85;;;;;;;;;;5027847;28;20512;-64
2021/10/20 03:32:54;;;;;;;11.13;6.88;;;;;;;;;;5045699;28;20071;-64
2021/10/20 03:35:21;;;;;;;12.77;6.93;;;;;;;;;;5038879;28;20465;-64
2021/10/20 03:37:47;;;;;;;12.75;7.20;;;;;;;;;;5019071;28;20406;-64
2021/10/20 03:40:14;;;;;;;14.82;6.90;;;;;;;;;;5035185;28;20075;-64
2021/10/20 03:42:41;;;;;;;12.10;6.60;;;;;;;;;;5030729;28;20052;-64
2021/10/20 03:45:07;;;;;;;13.00;6.53;;;;;;;;;;5040652;28;20127;-64
2021/10/20 03:47:33;;;;;;;12.07;6.65;;;;;;;;;;5031379;28;20053;-64
2021/10/20 03:50:00;;;;;;;15.75;7.30;;;;;;;;;;5029784;28;20060;-64
2021/10/20 03:52:27;;;;;;;17.98;7.50;;;;;;;;;;5008891;28;20237;-64
2021/10/20 03:54:53;;;;;;;11.50;6.68;;;;;;;;;;5029033;28;20053;-64
2021/10/20 03:57:19;;;;;;;11.85;6.60;;;;;;;;;;5035243;28;20529;-64
2021/10/20 03:59:46;;;;;;;14.40;7.03;;;;;;;;;;5028627;28;20059;-64
2021/10/20 04:02:13;;;;;;;15.90;6.95;;;;;;;;;;5031818;28;20144;-64
2021/10/20 04:04:40;;;;;;;17.15;7.50;;;;;;;;;;5025101;28;20063;-64
2021/10/20 04:07:07;;;;;;;12.60;6.80;;;;;;;;;;5011338;28;20526;-64
2021/10/20 04:09:33;;;;;;;13.20;7.05;;;;;;;;;;5035355;28;20067;-64
2021/10/20 04:11:59;;;;;;;12.35;7.00;;;;;;;;;;5027285;28;20056;-64
2021/10/20 04:14:26;;;;;;;19.08;7.38;;;;;;;;;;5032248;28;20250;-64
2021/10/20 04:16:52;;;;;;;12.07;6.55;;;;;;;;;;5032673;28;20049;-64
2021/10/20 04:19:18;;;;;;;12.15;7.20;;;;;;;;;;5028129;28;20056;-64
2021/10/20 04:21:45;;;;;;;11.10;7.13;;;;;;;;;;5028020;28;20285;-64
2021/10/20 04:24:11;;;;;;;14.35;7.30;;;;;;;;;;5040898;28;20092;-64
2021/10/20 04:26:37;;;;;;;13.10;7.00;;;;;;;;;;5038712;28;20510;-64
2021/10/20 04:29:04;;;;;;;12.80;6.68;;;;;;;;;;5029792;28;20869;-64
2021/10/20 04:31:30;;;;;;;12.25;6.75;;;;;;;;;;5044253;28;20247;-64
2021/10/20 04:33:57;;;;;;;12.98;6.70;;;;;;;;;;5026072;28;20049;-64
2021/10/20 04:36:23;;;;;;;16.35;6.65;;;;;;;;;;5021007;28;20555;-64
2021/10/20 04:38:49;;;;;;;12.80;6.50;;;;;;;;;;5024247;28;20045;-64
2021/10/20 04:41:15;;;;;;;13.45;6.80;;;;;;;;;;5037469;28;20045;-64
2021/10/20 04:43:42;;;;;;;12.80;6.28;;;;;;;;;;5038978;28;20081;-64
2021/10/20 04:46:08;;;;;;;12.55;6.93;;;;;;;;;;5027588;28;20046;-64
2021/10/20 04:48:34;;;;;;;13.38;6.90;;;;;;;;;;5028740;28;20406;-64
2021/10/20 04:51:01;;;;;;;11.82;6.60;;;;;;;;;;5033275;28;20049;-63
2021/10/20 04:53:27;;;;;;;17.58;7.43;;;;;;;;;;5034043;28;20429;-64
2021/10/20 04:55:54;;;;;;;17.80;6.90;;;;;;;;;;5043310;28;20052;-64
2021/10/20 04:58:20;;;;;;;13.45;6.95;;;;;;;;;;5030095;28;20735;-64
2021/10/20 05:00:47;;;;;;;16.00;8.38;;;;;;;;;;5031843;28;20044;-64
2021/10/20 05:03:13;;;;;;;13.30;7.22;;;;;;;;;;5027490;28;20600;-64
2021/10/20 05:05:39;;;;;;;16.90;8.10;;;;;;;;;;5034801;28;20049;-64
2021/10/20 05:08:06;;;;;;;13.32;7.53;;;;;;;;;;5024008;28;20049;-64
2021/10/20 05:10:32;;;;;;;16.67;7.68;;;;;;;;;;5037050;28;20053;-64
2021/10/20 05:12:59;;;;;;;15.82;8.15;;;;;;;;;;5025473;28;20053;-63
2021/10/20 05:15:25;;;;;;;12.68;7.78;;;;;;;;;;5033643;28;20053;-64
2021/10/20 05:17:51;;;;;;;13.18;7.05;;;;;;;;;;5024093;28;20425;-64
2021/10/20 05:20:18;;;;;;;13.35;7.40;;;;;;;;;;5034340;28;20562;-64
2021/10/20 05:22:45;;;;;;;13.43;7.43;;;;;;;;;;5031574;28;20500;-64
2021/10/20 05:25:12;;;;;;;14.02;7.30;;;;;;;;;;5030835;28;20049;-64
2021/10/20 05:27:39;;;;;;;17.65;8.38;;;;;;;;;;5029602;28;20045;-64
2021/10/20 05:30:06;;;;;;;14.85;7.85;;;;;;;;;;5033612;28;20478;-64
2021/10/20 05:32:32;;;;;;;16.02;8.10;;;;;;;;;;5024666;28;20441;-64
2021/10/20 05:34:58;;;;;;;14.25;7.20;;;;;;;;;;5040178;28;20063;-64
2021/10/20 05:37:25;;;;;;;13.15;7.45;;;;;;;;;;5023670;28;20441;-64
2021/10/20 05:39:52;;;;;;;15.05;7.10;;;;;;;;;;5042067;28;20050;-64
2021/10/20 05:42:19;;;;;;;16.63;7.68;;;;;;;;;;5011443;28;20083;-64
2021/10/20 05:44:46;;;;;;;20.52;7.47;;;;;;;;;;5034583;28;20502;-64
2021/10/20 05:47:12;;;;;;;13.95;7.78;;;;;;;;;;5028357;28;20064;-64
2021/10/20 05:49:39;;;;;;;16.30;7.55;;;;;;;;;;5030803;28;20064;-64
2021/10/20 05:52:06;;;;;;;13.90;8.23;;;;;;;;;;5029593;28;20056;-64
2021/10/20 05:54:32;;;;;;;14.52;7.25;;;;;;;;;;5023480;28;20045;-64
2021/10/20 05:56:59;;;;;;;10.45;6.82;;;;;;;;;;5028530;28;20056;-65
2021/10/20 05:59:25;;;;;;;14.57;7.07;;;;;;;;;;5031556;28;20052;-64
2021/10/20 06:01:52;;;;;;;11.98;7.00;;;;;;;;;;5030501;28;20068;-64
2021/10/20 06:04:18;;;;;;;11.23;7.28;;;;;;;;;;5034315;28;20049;-64
2021/10/20 06:06:45;;;;;;;17.75;7.28;;;;;;;;;;5020749;28;20084;-64
2021/10/20 06:09:11;;;;;;;12.27;6.88;;;;;;;;;;5037589;28;20048;-64
2021/10/20 06:11:38;;;;;;;12.18;6.68;;;;;;;;;;5034093;28;20059;-64
2021/10/20 06:14:04;;;;;;;13.85;7.15;;;;;;;;;;5037434;28;20057;-64
2021/10/20 06:16:36;;;;;;;11.38;6.90;;;;;;;;;;5033405;28;20453;-64
2021/10/20 06:19:03;;;;;;;13.93;7.15;;;;;;;;;;5031725;28;20143;-64
2021/10/20 06:21:29;;;;;;;12.15;6.95;;;;;;;;;;5031557;28;20056;-64
2021/10/20 06:23:56;;;;;;;13.57;7.13;;;;;;;;;;5022231;28;20045;-64
2021/10/20 06:26:22;;;;;;;15.88;7.07;;;;;;;;;;5028700;28;20585;-64
2021/10/20 06:28:48;;;;;;;13.40;6.93;;;;;;;;;;5032335;28;20056;-64
2021/10/20 06:31:15;;;;;;;13.98;7.30;;;;;;;;;;5040938;28;20051;-64
2021/10/20 06:33:42;;;;;;;15.23;7.35;;;;;;;;;;5037064;28;20056;-64
2021/10/20 06:36:18;;;;;;;11.88;7.22;;;;;;;;;;5040875;28;20076;-64
2021/10/20 06:38:44;;;;;;;12.95;6.88;;;;;;;;;;5039173;28;20061;-64
2021/10/20 06:41:10;;;;;;;12.00;6.90;;;;;;;;;;5022659;28;20084;-65
2021/10/20 06:43:37;;;;;;;13.70;7.45;;;;;;;;;;5042998;28;20059;-65
2021/10/20 06:46:03;;;;;;;14.48;7.15;;;;;;;;;;5028232;28;20057;-65
2021/10/20 06:48:29;;;;;;;13.43;7.10;;;;;;;;;;5042575;28;20128;-64
2021/10/20 06:50:56;;;;;;;15.02;7.65;;;;;;;;;;5023555;28;20045;-65
2021/10/20 06:53:23;;;;;;;9.85;6.50;;;;;;;;;;5034177;28;20055;-64
2021/10/20 06:55:51;;;;;;;12.52;6.82;;;;;;;;;;5033413;28;20479;-65
2021/10/20 06:58:18;;;;;;;12.45;7.68;;;;;;;;;;5030500;28;20828;-65
2021/10/20 07:00:44;;;;;;;10.98;7.15;;;;;;;;;;5030990;28;20068;-65
2021/10/20 07:03:10;;;;;;;15.75;7.05;;;;;;;;;;5036118;28;20103;-65
2021/10/20 07:05:37;;;;;;;10.55;7.18;;;;;;;;;;5031897;28;20048;-65
2021/10/20 07:08:03;;;;;;;11.98;6.80;;;;;;;;;;5041942;28;20078;-65
2021/10/20 07:10:29;;;;;;;12.40;6.43;;;;;;;;;;5032594;28;20057;-65
2021/10/20 07:12:56;;;;;;;11.73;6.72;;;;;;;;;;5041210;28;20057;-65
2021/10/20 07:15:22;;;;;;;11.38;7.20;;;;;;;;;;5030560;28;20528;-65
2021/10/20 07:17:49;;;;;;;13.38;6.90;;;;;;;;;;5039663;28;20474;-65
2021/10/20 07:20:15;;;;;;;9.98;6.50;;;;;;;;;;5026871;28;20072;-65
2021/10/20 07:22:41;;;;;;;11.32;6.35;;;;;;;;;;5038685;28;20049;-65
2021/10/20 07:25:09;;;;;;;10.38;6.00;;;;;;;;;;5038676;28;20391;-66
2021/10/20 07:27:36;;;;;;;11.88;7.43;;;;;;;;;;5032246;28;20094;-65
2021/10/20 07:30:03;;;;;;;12.48;6.63;;;;;;;;;;5045330;28;20045;-65
2021/10/20 07:32:30;;;;;;;10.95;6.38;;;;;;;;;;5034243;28;20060;-65
2021/10/20 07:34:56;;;;;;;17.00;7.35;;;;;;;;;;5036339;28;20050;-65
2021/10/20 07:37:22;;;;;;;9.60;6.93;;;;;;;;;;5028084;28;20060;-65
2021/10/20 07:39:49;;;;;;;14.35;7.00;;;;;;;;;;5039252;28;20168;-65
2021/10/20 07:42:15;;;;;;;12.80;6.43;;;;;;;;;;5040558;28;20057;-65
2021/10/20 07:44:43;;;;;;;15.65;6.22;;;;;;;;;;5032683;28;20064;-65
2021/10/20 07:47:09;;;;;;;10.90;6.43;;;;;;;;;;5036359;28;20049;-65
2021/10/20 07:49:35;;;;;;;13.25;6.80;;;;;;;;;;5030983;28;20364;-65
2021/10/20 07:52:01;;;;;;;11.70;6.90;;;;;;;;;;5039534;28;20053;-65
2021/10/20 07:54:28;;;;;;;10.20;6.80;;;;;;;;;;5035417;28;20057;-65
2021/10/20 07:56:54;;;;;;;10.55;6.85;;;;;;;;;;5035543;28;20067;-65
2021/10/20 07:59:21;;;;;;;11.55;6.78;;;;;;;;;;5035970;28;20045;-65
2021/10/20 08:01:47;;;;;;;13.00;7.88;;;;;;;;;;5037395;28;20049;-65
2021/10/20 08:04:14;;;;;;;18.65;8.00;;;;;;;;;;5037628;28;20654;-65
2021/10/20 08:06:40;;;;;;;10.95;6.57;;;;;;;;;;5023073;28;20051;-65
2021/10/20 08:09:07;;;;;;;10.93;7.32;;;;;;;;;;5033426;28;20434;-65
2021/10/20 08:11:33;;;;;;;13.05;7.22;;;;;;;;;;5025814;28;20063;-65
2021/10/20 08:14:03;;;;;;;12.43;7.63;;;;;;;;;;5038198;28;20061;-65
2021/10/20 08:16:30;;;;;;;13.07;7.47;;;;;;;;;;5033016;28;20055;-65
2021/10/20 08:18:57;;;;;;;10.65;7.35;;;;;;;;;;5038856;28;20072;-65
2021/10/20 08:21:23;;;;;;;12.32;7.45;;;;;;;;;;5036697;28;20065;-65
2021/10/20 08:23:49;;;;;;;11.45;7.57;;;;;;;;;;5032237;28;20060;-65
2021/10/20 08:26:16;;;;;;;13.63;8.32;;;;;;;;;;5037923;28;20056;-65
2021/10/20 08:28:42;;;;;;;15.32;8.23;;;;;;;;;;5032706;28;20045;-65
2021/10/20 08:31:08;;;;;;;13.57;7.65;;;;;;;;;;5034800;28;20520;-65
2021/10/20 08:33:35;;;;;;;14.25;7.85;;;;;;;;;;5037148;28;20479;-65
2021/10/20 08:36:01;;;;;;;14.60;7.95;;;;;;;;;;5025696;28;20055;-65
2021/10/20 08:38:27;;;;;;;13.80;8.13;;;;;;;;;;5039489;28;20045;-66
2021/10/20 08:40:55;;;;;;;12.25;8.23;;;;;;;;;;5019211;28;20045;-65
2021/10/20 08:43:22;;;;;;;14.30;7.93;;;;;;;;;;5042085;28;20057;-65
2021/10/20 08:45:49;;;;;;;14.45;8.30;;;;;;;;;;5026677;28;20544;-65
2021/10/20 08:48:19;;;;;;;12.13;8.05;;;;;;;;;;5035549;28;20424;-65
2021/10/20 08:50:50;;;;;;;16.45;8.02;;;;;;;;;;5030090;28;20045;-65
2021/10/20 08:53:17;;;;;;;13.93;8.20;;;;;;;;;;5033731;28;20462;-65
2021/10/20 08:55:47;;;;;;;13.15;7.43;;;;;;;;;;5025989;28;20057;-65
2021/10/20 08:58:14;;;;;;;18.20;9.13;;;;;;;;;;5035486;28;20053;-65
2021/10/20 09:00:41;;;;;;;13.45;8.70;;;;;;;;;;5028238;28;20075;-65
2021/10/20 09:03:07;;;;;;;14.80;8.63;;;;;;;;;;5026036;28;20160;-65
2021/10/20 09:05:34;;;;;;;15.18;9.25;;;;;;;;;;5035592;28;20049;-64
2021/10/20 09:08:01;;;;;;;13.00;8.50;;;;;;;;;;5040115;28;20049;-64
2021/10/20 09:10:28;;;;;;;12.05;8.52;;;;;;;;;;5017502;28;20067;-65
2021/10/20 09:12:55;;;;;;;15.38;8.48;;;;;;;;;;5043148;28;20060;-65
2021/10/20 09:15:23;;;;;;;15.30;8.15;;;;;;;;;;5012555;28;20500;-65
2021/10/20 09:17:57;;;;;;;12.70;8.13;;;;;;;;;;5037902;28;20540;-65
2021/10/20 09:20:27;;;;;;;14.20;7.60;;;;;;;;;;5021907;28;20140;-65
2021/10/20 09:22:56;;;;;;;11.85;7.90;;;;;;;;;;5039813;28;20053;-65
2021/10/20 09:25:23;;;;;;;13.00;7.90;;;;;;;;;;5027705;28;20053;-66
2021/10/20 09:27:50;;;;;;;16.48;8.07;;;;;;;;;;5035442;28;20493;-65
2021/10/20 09:30:16;;;;;;;12.13;8.23;;;;;;;;;;5011550;28;20833;-65
2021/10/20 09:32:43;;;;;;;11.55;7.13;;;;;;;;;;5034516;28;20056;-65
2021/10/20 09:35:13;;;;;;;11.27;7.38;;;;;;;;;;5023982;28;20486;-65
2021/10/20 09:37:40;;;;;;;12.77;7.95;;;;;;;;;;5034935;28;20457;-64
2021/10/20 09:40:07;;;;;;;11.52;8.27;;;;;;;;;;5026241;28;20049;-64
2021/10/20 09:42:44;;;;;;;12.00;8.30;;;;;;;;;;5035026;28;20408;-64
2021/10/20 09:45:12;;;;;;;11.63;7.55;;;;;;;;;;5027287;28;20056;-65
2021/10/20 09:47:38;;;;;;;13.23;8.30;;;;;;;;;;5042103;28;20046;-64
2021/10/20 09:50:05;;;;;;;12.88;8.35;;;;;;;;;;5021945;28;20053;-64
2021/10/20 09:52:43;;;;;;;17.23;9.38;;;;;;;;;;5043589;28;20078;-64
2021/10/20 09:55:13;;;;;;;17.10;9.73;;;;;;;;;;5019632;28;20429;-65
2021/10/20 09:57:40;;;;;;;16.55;8.30;;;;;;;;;;5037725;28;20056;-65
2021/10/20 10:00:07;;;;;;;15.23;8.98;;;;;;;;;;5021860;28;20053;-65
2021/10/20 10:02:34;;;;;;;16.13;9.13;;;;;;;;;;5040318;28;20120;-64
2021/10/20 10:05:00;;;;;;;14.68;9.20;;;;;;;;;;5035607;28;20490;-66
2021/10/20 10:07:27;;;;;;;25.33;9.13;;;;;;;;;;5016502;28;20049;-65
2021/10/20 10:09:53;;;;;;;12.90;8.55;;;;;;;;;;5027029;28;20132;-63
2021/10/20 10:12:26;;;;;;;13.95;8.57;;;;;;;;;;5030179;28;20049;-65
2021/10/20 10:14:59;;;;;;;13.45;8.75;;;;;;;;;;5041200;28;20055;-65
2021/10/20 10:17:47;;;;;;;19.90;10.32;;;;;;;;;;5041369;28;20151;-65
2021/10/20 10:20:15;;;;;;;;;;;;;;;;;;5037531;28;20087;-64
2021/10/20 10:22:47;;;;;;;14.40;9.18;;;;;;;;;;5040324;28;19939;-65
2021/10/20 10:25:13;;;;;;;17.83;8.57;;;;;;;;;;5027415;28;20044;-64
2021/10/20 10:27:58;;;;;;;13.65;8.30;;;;;;;;;;5041998;28;20051;-65
2021/10/20 10:30:25;;;;;;;13.65;9.05;;;;;;;;;;5034744;28;20063;-66
2021/10/20 10:32:57;;;;;;;11.80;8.63;;;;;;;;;;5041546;28;20110;-66
2021/10/20 10:35:30;;;;;;;13.40;8.45;;;;;;;;;;5025970;28;20049;-65
2021/10/20 10:38:04;;;;;;;14.50;8.70;;;;;;;;;;5038331;28;20287;-66
2021/10/20 10:40:32;;;;;;;14.43;8.95;;;;;;;;;;5020416;28;20076;-65
2021/10/20 10:43:03;;;;;;;11.40;8.68;;;;;;;;;;5041565;28;20398;-65
2021/10/20 10:45:29;;;;;;;14.65;8.10;;;;;;;;;;5041391;28;20470;-66
2021/10/20 10:47:55;;;;;;;13.10;8.00;;;;;;;;;;5034306;28;20478;-66
2021/10/20 10:50:36;;;;;;;12.98;8.60;;;;;;;;;;5042198;28;20089;-66
2021/10/20 10:53:03;;;;;;;13.60;8.25;;;;;;;;;;5021957;28;20064;-64
2021/10/20 10:55:30;;;;;;;12.88;8.30;;;;;;;;;;5037513;28;20056;-66
2021/10/20 10:57:57;;;;;;;13.70;7.97;;;;;;;;;;5031691;28;20063;-66
2021/10/20 11:00:30;;;;;;;11.63;7.87;;;;;;;;;;5041247;28;20064;-66
2021/10/20 11:02:58;;;;;;;14.00;8.20;;;;;;;;;;5032282;28;20290;-66
2021/10/20 11:05:26;;;;;;;10.77;6.72;;;;;;;;;;5030777;28;20073;-66
2021/10/20 11:08:03;;;;;;;12.63;8.02;;;;;;;;;;5035326;28;20045;-64
2021/10/20 11:10:34;;;;;;;10.43;7.30;;;;;;;;;;5024740;28;20063;-66
2021/10/20 11:13:01;;;;;;;14.15;8.07;;;;;;;;;;5039519;28;20517;-66
2021/10/20 11:15:28;;;;;;;11.63;6.85;;;;;;;;;;5009815;28;20473;-66
2021/10/20 11:17:56;;;;;;;11.57;7.50;;;;;;;;;;5043244;28;20055;-66
2021/10/20 11:20:23;;;;;;;17.00;7.97;;;;;;;;;;5025817;28;20064;-66
2021/10/20 11:22:56;;;;;;;12.30;7.68;;;;;;;;;;5048959;28;20052;-66
2021/10/20 11:25:23;;;;;;;14.32;8.27;;;;;;;;;;5023518;28;20511;-66
2021/10/20 11:27:51;;;;;;;12.85;7.55;;;;;;;;;;5033560;28;20041;-64
2021/10/20 11:30:19;;;;;;;10.80;7.05;;;;;;;;;;5039479;28;20041;-66
2021/10/20 11:32:46;;;;;;;16.37;8.53;;;;;;;;;;5028720;28;20065;-64
2021/10/20 11:35:18;;;;;;;11.57;7.90;;;;;;;;;;5026776;28;20282;-64
2021/10/20 11:38:02;;;;;;;13.50;6.80;;;;;;;;;;5026619;28;20490;-64
2021/10/20 11:40:50;;;;;;;12.63;7.72;;;;;;;;;;5033196;28;20087;-66
2021/10/20 11:43:16;;;;;;;10.57;7.82;;;;;;;;;;5029238;28;20099;-64
2021/10/20 11:45:43;;;;;;;13.05;6.75;;;;;;;;;;5036779;28;20052;-66
2021/10/20 11:48:12;;;;;;;13.00;7.00;;;;;;;;;;5014745;28;20127;-66
2021/10/20 11:50:39;;;;;;;11.75;6.97;;;;;;;;;;5034900;28;20045;-66
2021/10/20 11:53:07;;;;;;;10.45;7.05;;;;;;;;;;5035243;28;20064;-66
2021/10/20 11:55:33;;;;;;;;;;;;;;;;;;5028677;28;20060;-64
2021/10/20 11:58:00;;;;;;;23.83;11.88;;;;;;;;;;5034615;28;20681;-63
2021/10/20 12:00:26;;;;;;;13.13;7.88;;;;;;;;;;5035263;28;20256;-64
2021/10/20 12:02:53;;;;;;;11.95;8.20;;;;;;;;;;5026717;28;20056;-64
2021/10/20 12:05:19;;;;;;;11.88;7.10;;;;;;;;;;5038645;28;20086;-66
2021/10/20 12:07:48;;;;;;;10.52;7.22;;;;;;;;;;5029811;28;20235;-64
2021/10/20 12:10:15;;;;;;;15.40;7.88;;;;;;;;;;5041603;28;20045;-64
2021/10/20 12:12:42;;;;;;;13.30;7.75;;;;;;;;;;5028251;28;20384;-64
2021/10/20 12:15:15;;;;;;;11.77;7.03;;;;;;;;;;5031123;28;20045;-64
2021/10/20 12:17:43;;;;;;;12.30;6.57;;;;;;;;;;5036990;28;20045;-64
2021/10/20 12:20:09;;;;;;;;;;;;;;;;;;5022913;28;20056;-65
2021/10/20 12:22:39;;;;;;;12.48;7.90;;;;;;;;;;5035108;28;19925;-64
2021/10/20 12:25:06;;;;;;;10.00;7.00;;;;;;;;;;5024035;28;20068;-65
2021/10/20 12:27:36;;;;;;;11.73;7.55;;;;;;;;;;5037094;28;20275;-64
2021/10/20 12:30:06;;;;;;;14.93;7.72;;;;;;;;;;5023127;28;20057;-64
2021/10/20 12:32:35;;;;;;;11.15;7.63;;;;;;;;;;5036590;28;20057;-64
2021/10/20 12:35:28;;;;;;;11.40;7.95;;;;;;;;;;5015773;28;20478;-64
2021/10/20 12:37:54;;;;;;;11.63;7.32;;;;;;;;;;5009436;28;20057;-64
2021/10/20 12:40:22;;;;;;;11.23;7.85;;;;;;;;;;5038353;28;20056;-64
2021/10/20 12:42:56;;;;;;;16.93;7.60;;;;;;;;;;5031759;28;20076;-65
2021/10/20 12:45:23;;;;;;;13.90;7.97;;;;;;;;;;5038872;28;20080;-64
2021/10/20 12:47:51;;;;;;;12.80;6.97;;;;;;;;;;5024280;28;20049;-65
2021/10/20 12:50:20;;;;;;;17.30;7.65;;;;;;;;;;5042510;28;20047;-64
2021/10/20 12:52:47;;;;;;;9.82;7.00;;;;;;;;;;5027508;28;20045;-64
2021/10/20 12:55:14;;;;;;;14.57;7.70;;;;;;;;;;5039799;28;20049;-64
2021/10/20 12:57:42;;;;;;;14.40;7.73;;;;;;;;;;5037045;28;20056;-64
2021/10/20 13:00:08;;;;;;;17.63;7.50;;;;;;;;;;5028610;28;20445;-64
2021/10/20 13:02:35;;;;;;;10.88;7.30;;;;;;;;;;5035952;28;20052;-64
2021/10/20 13:05:04;;;;;;;13.52;7.30;;;;;;;;;;5033731;28;20568;-65
2021/10/20 13:07:31;;;;;;;11.00;6.55;;;;;;;;;;5032787;28;20497;-66
2021/10/20 13:09:57;;;;;;;13.18;8.15;;;;;;;;;;5020689;28;20251;-64
2021/10/20 13:12:23;;;;;;;12.00;7.32;;;;;;;;;;5032089;28;20058;-65
2021/10/20 13:14:49;;;;;;;12.35;7.93;;;;;;;;;;5041751;28;20052;-65
2021/10/20 13:17:16;;;;;;;10.60;6.97;;;;;;;;;;5027787;28;20055;-65
2021/10/20 13:19:49;;;;;;;11.90;7.35;;;;;;;;;;5040103;28;20080;-66
2021/10/20 13:22:15;;;;;;;10.68;7.38;;;;;;;;;;5026858;28;20079;-65
2021/10/20 13:24:42;;;;;;;10.27;6.88;;;;;;;;;;5033959;28;20493;-66
2021/10/20 13:27:08;;;;;;;12.68;7.28;;;;;;;;;;5028074;28;20057;-65
2021/10/20 13:29:35;;;;;;;12.45;7.10;;;;;;;;;;5031136;28;20036;-65
2021/10/20 13:32:01;;;;;;;14.05;7.10;;;;;;;;;;5043737;28;20053;-66
2021/10/20 13:34:27;;;;;;;11.80;6.57;;;;;;;;;;5026914;28;20049;-65
2021/10/20 13:36:54;;;;;;;8.70;6.90;;;;;;;;;;5043475;28;20401;-65
2021/10/20 13:39:20;;;;;;;9.48;6.43;;;;;;;;;;5027801;28;20052;-66
2021/10/20 13:41:46;;;;;;;11.80;7.13;;;;;;;;;;5035406;28;20956;-65
2021/10/20 13:44:13;;;;;;;11.50;6.32;;;;;;;;;;5026911;28;20045;-64
2021/10/20 13:46:39;;;;;;;10.50;5.80;;;;;;;;;;5042540;28;20053;-65
2021/10/20 13:49:05;;;;;;;13.32;6.47;;;;;;;;;;5033024;28;20053;-65
2021/10/20 13:51:32;;;;;;;12.65;6.30;;;;;;;;;;5032115;28;20052;-65
2021/10/20 13:53:58;;;;;;;12.27;6.75;;;;;;;;;;5035456;28;20067;-66
2021/10/20 13:56:24;;;;;;;10.77;6.40;;;;;;;;;;5035201;28;20144;-65
2021/10/20 13:58:51;;;;;;;11.00;6.60;;;;;;;;;;5042965;28;20048;-65
2021/10/20 14:01:17;;;;;;;8.50;6.10;;;;;;;;;;5033111;28;20410;-65
2021/10/20 14:03:44;;;;;;;10.90;6.65;;;;;;;;;;5034546;28;20136;-65
2021/10/20 14:06:14;;;;;;;9.20;6.65;;;;;;;;;;5036896;28;20045;-65
2021/10/20 14:08:40;;;;;;;11.13;6.88;;;;;;;;;;5003926;28;20052;-66
2021/10/20 14:11:06;;;;;;;11.90;6.75;;;;;;;;;;5045134;28;20052;-65
2021/10/20 14:13:33;;;;;;;11.35;6.55;;;;;;;;;;5031105;28;20396;-65
2021/10/20 14:15:59;;;;;;;10.45;6.82;;;;;;;;;;5043871;28;20053;-65
2021/10/20 14:18:28;;;;;;;8.82;6.20;;;;;;;;;;5030055;28;20056;-65
2021/10/20 14:20:55;;;;;;;8.18;6.00;;;;;;;;;;5040190;28;20088;-65
2021/10/20 14:23:21;;;;;;;12.60;6.65;;;;;;;;;;5033924;28;20060;-65
2021/10/20 14:25:48;;;;;;;10.10;6.60;;;;;;;;;;5035313;28;20044;-65
2021/10/20 14:28:15;;;;;;;16.23;6.28;;;;;;;;;;5038838;28;20653;-65
2021/10/20 14:30:41;;;;;;;13.00;6.80;;;;;;;;;;5033282;28;20046;-65